createdAt,value
2024-01-25T00:02:52.985Z,6.51
2024-01-25T00:07:50.904Z,6.49
2024-01-25T00:12:47.939Z,6.45
2024-01-25T00:17:45.822Z,6.45
2024-01-25T00:22:43.136Z,6.39
2024-01-25T00:27:39.972Z,6.27
2024-01-25T00:32:36.843Z,6.39
2024-01-25T00:37:34.013Z,6.39
2024-01-25T00:42:32.149Z,6.41
2024-01-25T00:47:29.440Z,6.43
2024-01-25T00:52:26.618Z,6.39
2024-01-25T00:57:24.014Z,6.41
2024-01-25T01:02:23.020Z,6.23
2024-01-25T01:07:20.622Z,6.16
2024-01-25T01:12:18.047Z,6.27
2024-01-25T01:17:16.809Z,6.19
2024-01-25T01:22:13.663Z,6.17
2024-01-25T01:27:10.661Z,6.15
2024-01-25T01:32:07.547Z,6.15
2024-01-25T01:37:04.459Z,6.13
2024-01-25T01:42:01.277Z,6.10
2024-01-25T01:46:58.096Z,6.06
2024-01-25T01:51:55.352Z,6.01
2024-01-25T01:56:52.929Z,5.84
2024-01-25T02:01:50.042Z,5.96
2024-01-25T02:06:47.722Z,5.87
2024-01-25T02:11:44.572Z,5.69
2024-01-25T02:16:42.638Z,5.72
2024-01-25T02:21:39.568Z,5.60
2024-01-25T02:26:38.060Z,5.71
2024-01-25T02:31:35.032Z,5.73
2024-01-25T02:36:31.807Z,5.75
2024-01-25T02:41:31.242Z,5.82
2024-01-25T02:46:28.152Z,5.92
2024-01-25T02:51:25.075Z,5.99
2024-01-25T02:56:21.900Z,6.09
2024-01-25T03:01:18.969Z,6.19
2024-01-25T03:06:15.981Z,6.28
2024-01-25T03:11:12.824Z,6.36
2024-01-25T03:16:09.785Z,6.44
2024-01-25T03:21:06.648Z,6.48
2024-01-25T03:26:03.878Z,6.52
2024-01-25T03:31:03.681Z,6.52
2024-01-25T03:36:04.572Z,6.39
2024-01-25T03:41:01.400Z,6.56
2024-01-25T03:45:58.238Z,6.62
2024-01-25T03:50:57.665Z,6.66
2024-01-25T03:55:54.414Z,6.74
2024-01-25T04:00:51.267Z,6.66
2024-01-25T04:05:48.228Z,6.90
2024-01-25T04:10:45.080Z,6.99
2024-01-25T04:15:41.875Z,7.05
2024-01-25T04:20:38.808Z,7.10
2024-01-25T04:25:35.767Z,7.25
2024-01-25T04:30:34.209Z,7.34
2024-01-25T04:35:33.248Z,7.44
2024-01-25T04:40:30.388Z,7.54
2024-01-25T04:45:27.246Z,7.63
2024-01-25T04:50:24.198Z,7.71
2024-01-25T04:55:21.534Z,7.79
2024-01-25T05:00:18.743Z,7.85
2024-01-25T05:05:16.409Z,7.89
2024-01-25T05:10:13.453Z,7.97
2024-01-25T05:15:12.695Z,8.02
2024-01-25T05:20:10.961Z,8.06
2024-01-25T05:25:09.545Z,8.13
2024-01-25T05:30:07.653Z,8.20
2024-01-25T05:35:05.268Z,8.32
2024-01-25T05:40:02.318Z,8.45
2024-01-25T05:44:59.624Z,8.56
2024-01-25T05:49:56.624Z,8.67
2024-01-25T05:54:53.508Z,8.62
2024-01-25T05:59:51.444Z,8.77
2024-01-25T06:04:50.589Z,8.99
2024-01-25T06:09:47.418Z,9.12
2024-01-25T06:14:44.334Z,9.24
2024-01-25T06:19:41.544Z,9.34
2024-01-25T06:24:39.069Z,9.50
2024-01-25T06:29:35.894Z,9.62
2024-01-25T06:34:32.748Z,9.57
2024-01-25T06:39:30.083Z,9.79
2024-01-25T06:44:29.508Z,9.91
2024-01-25T06:49:26.452Z,9.90
2024-01-25T06:54:23.573Z,10.11
2024-01-25T06:59:20.357Z,10.24
2024-01-25T07:04:17.665Z,10.37
2024-01-25T07:09:14.965Z,10.47
2024-01-25T07:14:11.725Z,10.43
2024-01-25T07:19:08.694Z,10.60
2024-01-25T07:24:06.109Z,10.53
2024-01-25T07:29:02.885Z,10.70
2024-01-25T07:33:59.785Z,10.72
2024-01-25T07:38:56.739Z,10.61
2024-01-25T07:43:56.584Z,10.80
2024-01-25T07:48:53.636Z,10.84
2024-01-25T07:53:50.570Z,10.80
2024-01-25T07:58:47.386Z,10.88
2024-01-25T08:03:44.240Z,10.92
2024-01-25T08:08:41.201Z,10.95
2024-01-25T08:13:38.040Z,10.80
2024-01-25T08:18:35.079Z,10.96
2024-01-25T08:23:31.955Z,10.91
2024-01-25T08:28:28.756Z,11.02
2024-01-25T08:33:26.550Z,11.13
2024-01-25T08:38:23.448Z,11.17
2024-01-25T08:43:20.286Z,11.22
2024-01-25T08:48:17.364Z,11.32
2024-01-25T08:53:15.631Z,11.37
2024-01-25T08:58:12.440Z,11.41
2024-01-25T09:03:09.258Z,11.44
2024-01-25T09:08:06.412Z,11.64
2024-01-25T09:13:03.374Z,11.70
2024-01-25T09:18:00.253Z,11.73
2024-01-25T09:22:57.164Z,11.79
2024-01-25T09:27:54.615Z,11.84
2024-01-25T09:32:52.731Z,11.94
2024-01-25T09:37:53.633Z,11.99
2024-01-25T09:42:53.963Z,12.08
2024-01-25T09:47:50.985Z,12.10
2024-01-25T09:52:57.125Z,12.14
2024-01-25T09:58:00.206Z,12.22
2024-01-25T10:02:59.563Z,12.28
2024-01-25T10:08:02.486Z,12.22
2024-01-25T10:13:00.621Z,12.47
2024-01-25T10:18:14.498Z,12.56
2024-01-25T10:23:14.686Z,12.63
2024-01-25T10:28:14.083Z,12.72
2024-01-25T10:33:11.894Z,12.72
2024-01-25T10:38:09.037Z,12.94
2024-01-25T10:43:06.001Z,12.97
2024-01-25T10:48:03.640Z,13.22
2024-01-25T10:53:02.096Z,13.30
2024-01-25T10:57:58.871Z,13.35
2024-01-25T11:02:56.682Z,13.36
2024-01-25T11:07:53.677Z,13.48
2024-01-25T11:12:58.548Z,13.59
2024-01-25T11:17:55.821Z,13.66
2024-01-25T11:23:12.355Z,13.72
2024-01-25T11:28:09.475Z,13.61
2024-01-25T11:33:08.283Z,13.92
2024-01-25T11:38:05.373Z,14.14
2024-01-25T11:43:03.497Z,14.16
2024-01-25T11:48:00.468Z,14.28
2024-01-25T11:52:57.595Z,14.34
2024-01-25T11:57:54.698Z,14.48
2024-01-25T12:02:51.641Z,14.60
2024-01-25T12:07:49.073Z,14.68
2024-01-25T12:12:46.007Z,14.95
2024-01-25T12:17:43.199Z,14.91
2024-01-25T12:22:40.389Z,14.96
2024-01-25T12:27:38.755Z,14.77
2024-01-25T12:32:36.053Z,14.84
2024-01-25T12:37:33.404Z,14.83
2024-01-25T12:42:30.521Z,14.64
2024-01-25T12:47:28.756Z,14.56
2024-01-25T12:52:26.012Z,14.72
2024-01-25T12:57:22.953Z,14.90
2024-01-25T13:02:19.924Z,14.83
2024-01-25T13:07:16.750Z,15.05
2024-01-25T13:12:13.594Z,14.99
2024-01-25T13:17:10.508Z,15.06
2024-01-25T13:22:07.374Z,15.17
2024-01-25T13:27:04.980Z,15.13
2024-01-25T13:32:01.767Z,15.20
2024-01-25T13:36:58.596Z,15.14
2024-01-25T13:41:55.390Z,15.08
2024-01-25T13:46:53.677Z,14.98
2024-01-25T13:51:50.519Z,14.84
2024-01-25T13:56:47.360Z,14.85
2024-01-25T14:01:44.186Z,14.81
2024-01-25T14:06:40.993Z,14.82
2024-01-25T14:11:38.117Z,14.82
2024-01-25T14:16:35.210Z,14.83
2024-01-25T14:21:36.589Z,14.79
2024-01-25T14:26:33.430Z,14.78
2024-01-25T14:31:30.261Z,14.78
2024-01-25T14:36:27.143Z,14.86
2024-01-25T14:41:24.036Z,14.84
2024-01-25T14:46:20.986Z,14.84
2024-01-25T14:51:17.759Z,14.83
2024-01-25T14:56:14.587Z,14.76
2024-01-25T15:01:19.711Z,14.74
2024-01-25T15:06:16.809Z,14.43
2024-01-25T15:11:13.793Z,14.53
2024-01-25T15:16:10.829Z,14.52
2024-01-25T15:21:07.730Z,14.47
2024-01-25T15:26:05.816Z,14.31
2024-01-25T15:31:03.322Z,14.46
2024-01-25T15:36:00.340Z,14.40
2024-01-25T15:40:57.221Z,14.38
2024-01-25T15:45:54.070Z,14.37
2024-01-25T15:50:51.436Z,14.30
2024-01-25T15:55:48.262Z,14.19
2024-01-25T16:00:45.119Z,14.10
2024-01-25T16:05:42.048Z,13.84
2024-01-25T16:10:39.077Z,14.03
2024-01-25T16:15:36.052Z,13.86
2024-01-25T16:20:32.897Z,13.94
2024-01-25T16:25:31.747Z,13.88
2024-01-25T16:30:28.644Z,13.71
2024-01-25T16:35:25.513Z,13.78
2024-01-25T16:40:22.258Z,13.80
2024-01-25T16:45:19.050Z,13.79
2024-01-25T16:50:16.262Z,13.75
2024-01-25T16:55:13.289Z,13.48
2024-01-25T17:00:10.622Z,13.76
2024-01-25T17:05:07.653Z,13.53
2024-01-25T17:10:05.691Z,13.44
2024-01-25T17:15:02.462Z,13.66
2024-01-25T17:20:03.539Z,13.60
2024-01-25T17:25:01.216Z,13.45
2024-01-25T17:29:58.181Z,13.61
2024-01-25T17:34:58.214Z,13.56
2024-01-25T17:39:55.216Z,13.56
2024-01-25T17:44:52.157Z,13.43
2024-01-25T17:49:51.567Z,13.50
2024-01-25T17:54:48.445Z,13.41
2024-01-25T17:59:45.215Z,13.51
2024-01-25T18:04:42.045Z,13.42
2024-01-25T18:09:39.011Z,13.39
2024-01-25T18:14:35.911Z,13.35
2024-01-25T18:19:37.283Z,13.27
2024-01-25T18:24:34.278Z,13.36
2024-01-25T18:29:31.508Z,13.04
2024-01-25T18:34:28.401Z,13.31
2024-01-25T18:39:25.350Z,13.34
2024-01-25T18:44:26.013Z,13.24
2024-01-25T18:49:22.890Z,13.33
2024-01-25T18:54:21.029Z,13.15
2024-01-25T18:59:19.262Z,13.36
2024-01-25T19:04:16.677Z,13.34
2024-01-25T19:09:13.889Z,13.34
2024-01-25T19:14:10.744Z,13.21
2024-01-25T19:19:07.758Z,13.24
2024-01-25T19:24:05.414Z,13.27
2024-01-25T19:29:02.206Z,13.27
2024-01-25T19:33:59.063Z,13.30
2024-01-25T19:38:56.022Z,13.30
2024-01-25T19:43:52.929Z,13.27
2024-01-25T19:48:49.925Z,13.15
2024-01-25T19:53:47.052Z,13.12
2024-01-25T19:58:48.738Z,13.33
2024-01-25T20:03:47.067Z,13.38
2024-01-25T20:08:45.171Z,13.33
2024-01-25T20:13:42.651Z,13.30
2024-01-25T20:18:39.671Z,13.37
2024-01-25T20:23:36.760Z,13.35
2024-01-25T20:28:33.639Z,13.34
2024-01-25T20:33:30.541Z,13.38
2024-01-25T20:38:27.442Z,13.23
2024-01-25T20:43:24.217Z,13.36
2024-01-25T20:48:21.141Z,13.34
2024-01-25T20:53:18.319Z,13.44
2024-01-25T20:58:15.126Z,13.25
2024-01-25T21:03:12.192Z,13.47
2024-01-25T21:08:11.147Z,13.43
2024-01-25T21:13:08.448Z,13.48
2024-01-25T21:18:06.164Z,13.34
2024-01-25T21:23:03.327Z,13.31
2024-01-25T21:28:02.105Z,13.49
2024-01-25T21:32:59.005Z,13.48
2024-01-25T21:37:56.032Z,13.48
2024-01-25T21:42:53.454Z,13.54
2024-01-25T21:47:50.348Z,13.54
2024-01-25T21:52:47.270Z,13.65
2024-01-25T21:57:51.072Z,13.62
2024-01-25T22:02:51.690Z,13.75
2024-01-25T22:07:49.902Z,13.75
2024-01-25T22:12:46.766Z,13.79
2024-01-25T22:17:43.675Z,13.87
2024-01-25T22:22:41.231Z,13.88
2024-01-25T22:27:39.181Z,13.81
2024-01-25T22:32:36.026Z,13.96
2024-01-25T22:37:32.772Z,13.98
2024-01-25T22:42:29.616Z,14.03
2024-01-25T22:47:26.468Z,14.04
2024-01-25T22:52:23.356Z,14.00
2024-01-25T22:57:21.100Z,13.91
2024-01-25T23:02:17.977Z,14.09
2024-01-25T23:07:14.814Z,14.12
2024-01-25T23:12:11.849Z,13.94
2024-01-25T23:17:09.004Z,13.96
2024-01-25T23:22:07.703Z,14.04
2024-01-25T23:27:04.887Z,14.11
2024-01-25T23:32:01.674Z,14.07
2024-01-25T23:36:58.758Z,14.08
2024-01-25T23:41:55.573Z,14.08
2024-01-25T23:46:52.406Z,14.06
2024-01-25T23:51:49.507Z,13.93
2024-01-25T23:56:46.344Z,13.98
